Time;durP1;ratioP1;P1;durP2;ratioP2;P2;SDS_P1;SDS_P2;PMS_P1;PMS_P2;Temp;Humidity;BMP_temperature;BMP_pressure;BME280_temperature;BME280_humidity;BME280_pressure;Samples;Min_cycle;Max_cycle;Signal;HPM_P1;HPM_P2
2021/06/24 00:00:50;;;;;;;22.87;18.93;;;;;;;20.22;72.87;99493.94;5093881;28;20422;-72
2021/06/24 00:03:16;;;;;;;20.80;18.70;;;;;;;20.06;73.55;99497.28;5093815;28;20935;-72
2021/06/24 00:05:45;;;;;;;19.17;17.37;;;;;;;20.17;73.06;99506.19;5093310;28;21058;-71
2021/06/24 00:08:13;;;;;;;20.27;18.17;;;;;;;20.03;73.76;99497.63;5093756;28;20438;-72
2021/06/24 00:10:42;;;;;;;20.03;18.03;;;;;;;19.85;74.59;99484.75;5093938;28;20532;-72
2021/06/24 00:13:09;;;;;;;18.90;16.73;;;;;;;19.86;74.24;99485.63;5093592;28;20792;-73
2021/06/24 00:15:36;;;;;;;19.90;18.00;;;;;;;19.66;75.25;99482.94;5093612;28;20437;-72
2021/06/24 00:18:03;;;;;;;21.93;18.90;;;;;;;19.53;76.19;99487.88;5093170;28;20572;-71
2021/06/24 00:20:30;;;;;;;19.70;17.30;;;;;;;19.76;75.18;99496.59;5093467;28;20521;-72
2021/06/24 00:22:58;;;;;;;20.87;18.17;;;;;;;19.86;74.48;99491.09;5093512;28;20428;-71
2021/06/24 00:25:25;;;;;;;21.60;18.90;;;;;;;19.65;75.46;99492.16;5093212;28;20429;-70
2021/06/24 00:27:52;;;;;;;20.83;18.07;;;;;;;19.82;74.89;99495.13;5093107;28;20449;-72
2021/06/24 00:30:19;;;;;;;20.10;18.00;;;;;;;19.88;74.77;99502.75;5094432;28;20475;-73
2021/06/24 00:32:46;;;;;;;22.80;19.60;;;;;;;19.79;74.84;99502.63;5093450;28;20428;-72
2021/06/24 00:35:14;;;;;;;22.50;18.80;;;;;;;19.94;74.07;99515.78;5093445;28;20473;-72
2021/06/24 00:37:41;;;;;;;19.23;17.27;;;;;;;20.00;74.08;99507.84;5093558;28;20502;-71
2021/06/24 00:40:11;;;;;;;20.30;18.17;;;;;;;20.11;73.33;99504.03;5093164;28;20454;-71
2021/06/24 00:42:38;;;;;;;20.23;18.03;;;;;;;20.08;73.86;99492.53;5093402;28;20765;-72
2021/06/24 00:45:07;;;;;;;20.57;18.57;;;;;;;20.06;73.42;99484.53;5093258;28;20476;-71
2021/06/24 00:47:34;;;;;;;22.20;17.90;;;;;;;20.01;73.83;99481.34;5092866;28;20418;-72
2021/06/24 00:50:00;;;;;;;19.30;17.43;;;;;;;20.01;73.92;99489.56;5096180;28;20442;-72
2021/06/24 00:52:27;;;;;;;21.60;18.98;;;;;;;20.14;73.59;99484.59;5106109;28;20457;-72
2021/06/24 00:54:55;;;;;;;22.77;17.93;;;;;;;20.00;73.76;99490.59;5117448;28;20189;-71
2021/06/24 00:57:25;;;;;;;20.57;18.50;;;;;;;20.12;73.71;99492.09;5117211;28;20486;-72
2021/06/24 00:59:51;;;;;;;19.77;17.70;;;;;;;20.30;72.97;99494.84;5117973;28;20460;-70
2021/06/24 01:02:19;;;;;;;19.83;17.83;;;;;;;20.25;73.15;99485.41;5117669;28;20417;-71
2021/06/24 01:04:45;;;;;;;18.70;16.87;;;;;;;20.38;72.75;99485.91;5117098;28;20472;-71
2021/06/24 01:07:12;;;;;;;27.03;17.87;;;;;;;20.36;72.83;99486.03;5104145;28;20458;-72
2021/06/24 01:09:38;;;;;;;23.43;18.00;;;;;;;20.18;73.30;99477.81;5097004;28;20453;-70
2021/06/24 01:12:08;;;;;;;20.20;18.10;;;;;;;20.29;73.00;99476.75;5097296;28;20869;-71
2021/06/24 01:14:37;;;;;;;20.17;18.13;;;;;;;20.40;72.36;99467.47;5097402;28;20426;-71
2021/06/24 01:17:04;;;;;;;20.77;18.63;;;;;;;20.35;72.14;99469.78;5096885;28;20501;-71
2021/06/24 01:19:31;;;;;;;21.20;19.00;;;;;;;20.28;72.57;99466.81;5096842;28;20438;-71
2021/06/24 01:21:59;;;;;;;21.50;18.60;;;;;;;20.26;72.70;99468.84;5097017;28;20973;-71
2021/06/24 01:24:28;;;;;;;20.05;18.10;;;;;;;20.18;73.32;99472.34;5096998;28;20524;-72
2021/06/24 01:26:54;;;;;;;20.53;18.23;;;;;;;20.38;72.63;99474.97;5096520;28;20295;-71
2021/06/24 01:29:21;;;;;;;19.20;17.23;;;;;;;20.34;72.99;99468.06;5096875;28;20517;-72
2021/06/24 01:31:48;;;;;;;23.60;19.83;;;;;;;20.30;72.63;99466.66;5096888;28;20518;-71
2021/06/24 01:34:14;;;;;;;21.10;18.83;;;;;;;19.94;74.37;99467.47;5096450;28;20473;-72
2021/06/24 01:36:41;;;;;;;19.73;17.70;;;;;;;20.14;74.13;99467.34;5096475;28;20895;-72
2021/06/24 01:39:10;;;;;;;20.27;18.23;;;;;;;20.04;74.34;99463.81;5096308;28;20469;-72
2021/06/24 01:41:39;;;;;;;19.13;17.23;;;;;;;20.06;75.15;99464.50;5096295;28;20462;-72
2021/06/24 01:44:06;;;;;;;19.33;17.30;;;;;;;19.79;76.84;99466.25;5099173;28;21002;-71
2021/06/24 01:46:33;;;;;;;19.03;17.10;;;;;;;19.72;77.73;99463.28;5116553;28;20436;-72
2021/06/24 01:49:00;;;;;;;17.93;16.23;;;;;;;19.79;77.01;99463.53;5116372;28;20421;-72
2021/06/24 01:51:26;;;;;;;20.57;17.60;;;;;;;19.55;78.58;99461.28;5116629;28;20421;-73
2021/06/24 01:53:53;;;;;;;20.03;18.03;;;;;;;19.32;79.63;99452.63;5116680;28;20468;-71
2021/06/24 01:56:20;;;;;;;19.23;17.20;;;;;;;19.30;79.41;99447.28;5116659;28;20429;-71
2021/06/24 01:58:48;;;;;;;23.90;19.58;;;;;;;19.29;78.42;99448.31;5116559;28;20461;-71
2021/06/24 02:01:16;;;;;;;27.92;18.63;;;;;;;19.25;79.04;99455.09;5115983;28;20285;-72
2021/06/24 02:03:43;;;;;;;20.42;17.67;;;;;;;19.15;80.61;99449.66;5114799;28;20222;-71
2021/06/24 02:06:09;;;;;;;20.45;18.25;;;;;;;19.39;80.00;99445.53;5116327;27;20566;-71
2021/06/24 02:08:36;;;;;;;23.17;17.40;;;;;;;19.63;78.83;99452.34;5116089;28;20223;-72
2021/06/24 02:11:05;;;;;;;18.83;16.53;;;;;;;19.72;78.64;99448.75;5115848;28;20471;-72
2021/06/24 02:13:32;;;;;;;18.70;16.77;;;;;;;19.69;78.51;99449.91;5115773;28;20422;-71
2021/06/24 02:16:00;;;;;;;19.33;17.07;;;;;;;19.73;78.52;99459.50;5075131;28;20212;-72
2021/06/24 02:18:27;;;;;;;22.17;17.37;;;;;;;19.82;77.87;99451.44;5075195;28;20467;-72
2021/06/24 02:20:54;;;;;;;18.63;16.83;;;;;;;19.84;79.20;99460.34;5075464;28;20552;-72
2021/06/24 02:23:21;;;;;;;19.43;17.27;;;;;;;19.91;78.13;99467.75;5075429;28;20962;-73
2021/06/24 02:25:47;;;;;;;19.53;17.23;;;;;;;19.98;78.67;99451.63;5075141;28;20470;-72
2021/06/24 02:28:14;;;;;;;22.63;18.37;;;;;;;19.93;80.26;99459.41;5075327;28;20830;-71
2021/06/24 02:30:41;;;;;;;19.97;17.87;;;;;;;20.09;80.82;99448.66;5084636;28;20532;-71
2021/06/24 02:33:10;;;;;;;21.93;19.63;;;;;;;20.04;82.00;99445.53;5095107;28;20517;-71
2021/06/24 02:35:38;;;;;;;21.50;18.30;;;;;;;19.84;82.17;99443.94;5095532;28;20892;-71
2021/06/24 02:38:06;;;;;;;22.97;19.70;;;;;;;19.47;85.42;99448.41;5095478;28;21049;-71
2021/06/24 02:40:33;;;;;;;22.23;19.83;;;;;;;19.68;84.98;99437.22;5095469;28;20884;-72
2021/06/24 02:43:00;;;;;;;21.67;18.43;;;;;;;19.71;83.01;99426.03;5095360;28;20453;-71
2021/06/24 02:45:27;;;;;;;24.00;19.13;;;;;;;19.73;81.56;99429.47;5094974;28;20438;-70
2021/06/24 02:47:53;;;;;;;21.33;19.17;;;;;;;19.71;83.88;99439.69;5094961;28;20419;-71
2021/06/24 02:50:22;;;;;;;22.15;19.75;;;;;;;19.65;84.20;99436.66;5094616;28;20846;-71
2021/06/24 02:52:48;;;;;;;21.77;19.65;;;;;;;19.67;85.83;99434.63;5094619;28;20200;-71
2021/06/24 02:55:15;;;;;;;23.77;20.27;;;;;;;19.55;85.24;99439.44;5094981;28;20279;-71
2021/06/24 02:57:45;;;;;;;21.40;19.10;;;;;;;19.35;87.60;99450.44;5094947;28;20485;-70
2021/06/24 03:00:13;;;;;;;22.00;19.70;;;;;;;19.40;87.92;99447.25;5096274;28;20440;-71
2021/06/24 03:02:41;;;;;;;24.20;21.63;;;;;;;19.47;88.66;99447.53;5094958;28;20445;-70
2021/06/24 03:05:09;;;;;;;21.80;19.50;;;;;;;19.63;87.59;99453.22;5094490;28;20484;-71
2021/06/24 03:07:37;;;;;;;24.20;20.60;;;;;;;19.20;90.41;99446.47;5094804;28;20426;-72
2021/06/24 03:10:05;;;;;;;23.53;21.10;;;;;;;18.99;93.09;99446.66;5095120;28;20927;-72
2021/06/24 03:12:32;;;;;;;25.35;21.88;;;;;;;18.91;94.99;99446.56;5094277;28;20430;-73
2021/06/24 03:14:58;;;;;;;27.75;21.58;;;;;;;18.79;97.67;99440.41;5094942;28;20222;-70
2021/06/24 03:17:25;;;;;;;27.90;22.52;;;;;;;18.54;98.60;99433.63;5094599;28;20282;-71
2021/06/24 03:19:53;;;;;;;25.77;23.08;;;;;;;18.54;100.00;99428.16;5094738;28;20620;-71
2021/06/24 03:22:19;;;;;;;25.77;23.02;;;;;;;18.33;100.00;99431.03;5094566;28;20273;-70
2021/06/24 03:24:48;;;;;;;25.98;22.90;;;;;;;18.36;100.00;99438.06;5094699;28;20205;-71
2021/06/24 03:27:14;;;;;;;25.95;23.02;;;;;;;18.40;100.00;99426.72;5094256;28;20182;-70
2021/06/24 03:29:41;;;;;;;27.20;24.33;;;;;;;18.36;100.00;99425.31;5094700;28;20607;-72
2021/06/24 03:32:08;;;;;;;29.08;25.48;;;;;;;18.10;100.00;99425.00;5094520;28;20677;-71
2021/06/24 03:34:35;;;;;;;28.88;23.60;;;;;;;18.04;100.00;99423.69;5093970;28;20182;-72
2021/06/24 03:37:02;;;;;;;26.55;23.30;;;;;;;17.86;100.00;99422.66;5094084;28;20631;-72
2021/06/24 03:39:28;;;;;;;31.33;25.90;;;;;;;17.82;100.00;99421.22;5094870;28;20572;-71
2021/06/24 03:41:56;;;;;;;30.27;26.45;;;;;;;17.83;100.00;99422.94;5094183;28;20208;-71
2021/06/24 03:44:23;;;;;;;28.58;24.83;;;;;;;18.17;100.00;99417.97;5093987;28;20208;-71
2021/06/24 03:46:49;;;;;;;32.45;26.58;;;;;;;18.31;100.00;99427.59;5095088;28;20185;-71
2021/06/24 03:49:16;;;;;;;28.85;23.65;;;;;;;18.56;100.00;99428.88;5093641;28;20259;-71
2021/06/24 03:51:43;;;;;;;25.70;23.05;;;;;;;18.39;100.00;99430.47;5093541;28;20195;-70
2021/06/24 03:54:09;;;;;;;27.00;24.08;;;;;;;18.44;100.00;99430.06;5093600;28;20201;-70
2021/06/24 03:56:37;;;;;;;27.33;23.42;;;;;;;18.28;100.00;99433.34;5093679;28;20224;-72
2021/06/24 03:59:05;;;;;;;29.23;24.35;;;;;;;18.26;100.00;99436.19;5093756;28;20276;-71
2021/06/24 04:01:31;;;;;;;26.50;23.75;;;;;;;17.91;100.00;99436.75;5093641;28;20193;-71
2021/06/24 04:03:58;;;;;;;26.20;23.25;;;;;;;17.90;100.00;99432.28;5093318;28;20228;-71
2021/06/24 04:06:25;;;;;;;26.70;23.48;;;;;;;17.88;100.00;99432.41;5093294;28;20371;-71
2021/06/24 04:08:51;;;;;;;26.15;21.75;;;;;;;18.15;100.00;99435.47;5093735;28;20691;-71
2021/06/24 04:11:18;;;;;;;24.58;21.95;;;;;;;18.05;100.00;99435.47;5093630;28;20622;-71
2021/06/24 04:13:45;;;;;;;23.92;21.35;;;;;;;18.22;100.00;99432.03;5093638;28;20254;-70
2021/06/24 04:16:13;;;;;;;23.23;20.80;;;;;;;18.22;100.00;99420.28;5093280;28;20655;-72
2021/06/24 04:18:40;;;;;;;23.60;21.13;;;;;;;18.23;100.00;99427.47;5093001;28;20225;-72
2021/06/24 04:21:06;;;;;;;25.58;21.63;;;;;;;18.12;100.00;99421.13;5093525;28;20186;-72
2021/06/24 04:23:33;;;;;;;25.27;21.13;;;;;;;18.11;100.00;99422.16;5101832;28;20188;-72
2021/06/24 04:26:00;;;;;;;24.15;21.70;;;;;;;18.20;100.00;99422.28;5113807;28;20181;-71
2021/06/24 04:28:26;;;;;;;23.85;21.35;;;;;;;18.32;100.00;99419.28;5113108;27;20205;-70
2021/06/24 04:30:53;;;;;;;22.92;20.73;;;;;;;18.39;100.00;99422.31;5113513;28;20205;-71
2021/06/24 04:33:21;;;;;;;23.58;21.00;;;;;;;18.58;100.00;99417.84;5113482;28;20665;-71
2021/06/24 04:35:48;;;;;;;21.52;19.23;;;;;;;18.44;100.00;99411.81;5113015;28;20335;-73
2021/06/24 04:38:15;;;;;;;21.58;19.48;;;;;;;18.51;100.00;99417.56;5103311;28;20294;-71
2021/06/24 04:40:41;;;;;;;21.67;19.35;;;;;;;18.47;100.00;99416.97;5092951;28;20233;-71
2021/06/24 04:43:08;;;;;;;21.25;19.05;;;;;;;18.58;100.00;99412.38;5092852;28;20203;-71
2021/06/24 04:45:35;;;;;;;20.60;18.58;;;;;;;18.71;100.00;99405.63;5092713;28;20226;-71
2021/06/24 04:48:01;;;;;;;23.42;21.02;;;;;;;18.78;100.00;99407.81;5093290;28;20285;-71
2021/06/24 04:50:29;;;;;;;23.90;21.45;;;;;;;18.75;100.00;99414.38;5093166;28;20188;-71
2021/06/24 04:52:56;;;;;;;23.75;21.08;;;;;;;18.82;100.00;99412.81;5093233;28;20383;-71
2021/06/24 04:55:24;;;;;;;23.02;20.55;;;;;;;18.87;100.00;99407.78;5093119;28;20540;-71
2021/06/24 04:57:50;;;;;;;22.77;20.17;;;;;;;18.87;99.08;99406.94;5092983;28;20618;-71
2021/06/24 05:00:17;;;;;;;21.90;19.70;;;;;;;18.65;99.56;99398.00;5094872;28;20560;-71
2021/06/24 05:02:44;;;;;;;23.35;20.88;;;;;;;18.66;100.00;99396.16;5102075;28;20606;-72
2021/06/24 05:05:11;;;;;;;21.73;19.52;;;;;;;18.69;100.00;99391.28;5094430;28;20318;-71
2021/06/24 05:07:39;;;;;;;21.88;19.60;;;;;;;18.50;100.00;99392.16;5092300;28;20211;-72
2021/06/24 05:10:07;;;;;;;23.48;20.00;;;;;;;18.64;100.00;99393.59;5092823;28;20226;-70
2021/06/24 05:12:34;;;;;;;24.80;21.55;;;;;;;18.90;100.00;99391.13;5092652;28;20187;-71
2021/06/24 05:15:01;;;;;;;21.98;19.70;;;;;;;18.86;100.00;99395.16;5092298;28;20265;-71
2021/06/24 05:17:29;;;;;;;23.15;20.73;;;;;;;18.80;100.00;99389.44;5092771;28;20192;-71
2021/06/24 05:19:57;;;;;;;23.02;20.60;;;;;;;18.94;100.00;99397.13;5092339;28;20213;-71
2021/06/24 05:22:24;;;;;;;20.75;18.63;;;;;;;18.73;100.00;99394.56;5092228;28;20568;-71
2021/06/24 05:24:52;;;;;;;22.02;19.55;;;;;;;18.84;100.00;99394.44;5092660;28;20529;-70
2021/06/24 05:27:19;;;;;;;21.90;19.80;;;;;;;18.92;100.00;99383.63;5092486;28;20533;-72
2021/06/24 05:29:48;;;;;;;19.55;17.65;;;;;;;18.88;100.00;99384.97;5092761;28;20305;-71
2021/06/24 05:32:14;;;;;;;18.90;16.67;;;;;;;19.07;100.00;99385.91;5092073;28;20234;-70
2021/06/24 05:34:41;;;;;;;18.35;16.55;;;;;;;18.93;100.00;99379.91;5093118;28;20279;-71
2021/06/24 05:37:08;;;;;;;18.83;16.90;;;;;;;18.94;100.00;99376.16;5096441;28;20224;-72
2021/06/24 05:39:34;;;;;;;16.95;15.15;;;;;;;18.91;100.00;99381.06;5096341;28;20215;-71
2021/06/24 05:42:03;;;;;;;17.70;15.90;;;;;;;18.85;100.00;99385.25;5096407;28;20578;-72
2021/06/24 05:44:29;;;;;;;13.95;12.65;;;;;;;18.78;100.00;99386.84;5096426;28;20249;-71
2021/06/24 05:46:57;;;;;;;16.65;14.95;;;;;;;18.91;100.00;99378.34;5095165;28;20203;-71
2021/06/24 05:49:24;;;;;;;16.88;14.85;;;;;;;19.01;100.00;99381.03;5095957;28;20210;-72
2021/06/24 05:51:51;;;;;;;14.55;13.15;;;;;;;19.01;100.00;99381.03;5095603;28;20207;-72
2021/06/24 05:54:18;;;;;;;16.02;14.43;;;;;;;18.98;100.00;99375.88;5095674;28;20216;-75
2021/06/24 05:56:45;;;;;;;13.60;12.33;;;;;;;19.07;100.00;99375.00;5093507;28;20310;-72
2021/06/24 05:59:14;;;;;;;13.55;12.10;;;;;;;18.92;100.00;99370.00;5095329;28;21072;-71
2021/06/24 06:01:43;;;;;;;12.23;11.03;;;;;;;19.12;99.65;99372.66;5094627;28;20212;-71
2021/06/24 06:04:10;;;;;;;11.57;10.38;;;;;;;19.20;98.06;99380.09;5097143;28;20509;-71
2021/06/24 06:06:38;;;;;;;10.27;9.20;;;;;;;18.90;96.68;99373.88;5094898;28;20200;-73
2021/06/24 06:09:07;;;;;;;12.90;11.63;;;;;;;18.91;99.46;99376.47;5094501;28;20210;-72
2021/06/24 06:11:36;;;;;;;12.38;10.35;;;;;;;19.01;97.51;99383.78;5093819;28;20217;-71
2021/06/24 06:14:03;;;;;;;10.50;9.40;;;;;;;18.85;95.96;99373.47;5095134;28;20712;-71
2021/06/24 06:16:34;;;;;;;10.43;9.38;;;;;;;18.81;98.12;99377.50;5094643;28;20621;-72
2021/06/24 06:19:00;;;;;;;10.95;9.95;;;;;;;18.61;99.55;99374.78;5094009;28;20223;-72
2021/06/24 06:21:29;;;;;;;11.65;10.50;;;;;;;18.73;100.00;99379.06;5094842;28;20240;-73
2021/06/24 06:23:56;;;;;;;13.90;10.63;;;;;;;18.61;99.19;99372.06;5094350;28;20234;-71
2021/06/24 06:26:24;;;;;;;10.25;9.07;;;;;;;18.81;99.47;99382.94;5094973;28;20203;-71
2021/06/24 06:28:51;;;;;;;9.70;8.80;;;;;;;19.14;96.99;99378.84;5094230;28;20533;-72
2021/06/24 06:31:17;;;;;;;9.60;8.70;;;;;;;19.23;96.88;99379.81;5094618;28;20196;-70
2021/06/24 06:33:46;;;;;;;10.13;8.75;;;;;;;19.46;95.32;99377.56;5093798;28;20519;-72
2021/06/24 06:36:12;;;;;;;8.83;8.03;;;;;;;19.54;94.19;99369.47;5094301;28;20731;-71
2021/06/24 06:38:39;;;;;;;13.50;10.00;;;;;;;19.46;93.94;99364.75;5093679;28;20481;-72
2021/06/24 06:41:08;;;;;;;9.47;8.57;;;;;;;19.56;92.81;99372.91;5094062;28;20541;-72
2021/06/24 06:43:34;;;;;;;9.50;8.57;;;;;;;19.62;92.27;99375.00;5093525;28;20458;-71
2021/06/24 06:46:01;;;;;;;8.47;7.67;;;;;;;19.55;92.31;99369.31;5093652;28;20537;-73
2021/06/24 06:48:28;;;;;;;8.37;7.57;;;;;;;19.83;90.92;99373.91;5094189;28;20529;-70
2021/06/24 06:50:56;;;;;;;10.20;9.17;;;;;;;19.95;89.86;99372.69;5095838;28;20533;-71
2021/06/24 06:53:23;;;;;;;8.50;7.70;;;;;;;19.91;88.85;99377.59;5093962;28;20620;-72
2021/06/24 06:55:50;;;;;;;9.30;8.30;;;;;;;19.85;90.20;99386.41;5091348;28;20451;-70
2021/06/24 06:58:17;;;;;;;12.13;9.35;;;;;;;19.98;91.13;99384.16;5074047;28;20513;-71
2021/06/24 07:00:44;;;;;;;7.70;7.00;;;;;;;19.97;90.36;99387.91;5073775;28;20266;-72
2021/06/24 07:03:10;;;;;;;8.30;7.50;;;;;;;19.87;90.62;99394.44;5086918;28;20508;-72
2021/06/24 07:05:37;;;;;;;7.65;6.60;;;;;;;19.79;90.38;99393.34;5113438;28;20226;-71
2021/06/24 07:08:17;;;;;;;7.57;6.87;;;;;;;20.08;89.17;99395.03;5110704;28;20278;-71
2021/06/24 07:10:44;;;;;;;7.23;6.70;;;;;;;20.23;87.93;99391.75;5094802;28;20479;-71
2021/06/24 07:13:15;;;;;;;7.05;6.43;;;;;;;20.19;87.97;99399.41;5093721;28;20768;-72
2021/06/24 07:15:42;;;;;;;7.30;6.33;;;;;;;20.27;86.05;99409.56;5094724;28;20626;-72
2021/06/24 07:18:12;;;;;;;5.50;4.77;;;;;;;20.46;84.14;99405.81;5093975;28;20422;-72
2021/06/24 07:20:39;;;;;;;5.80;5.30;;;;;;;20.32;84.28;99415.41;5097126;28;20880;-71
2021/06/24 07:23:10;;;;;;;6.27;5.67;;;;;;;19.99;86.61;99415.94;5094175;28;20789;-71
2021/06/24 07:25:37;;;;;;;5.60;4.97;;;;;;;19.81;89.20;99414.19;5094254;28;20453;-70
2021/06/24 07:28:04;;;;;;;5.70;5.20;;;;;;;19.71;90.10;99434.22;5093365;28;20442;-71
2021/06/24 07:30:32;;;;;;;6.03;5.53;;;;;;;19.95;89.12;99421.88;5093777;28;20523;-71
2021/06/24 07:32:59;;;;;;;5.17;4.67;;;;;;;19.93;87.00;99429.38;5093813;28;20438;-70
2021/06/24 07:35:26;;;;;;;4.53;4.13;;;;;;;19.72;88.05;99440.56;5093318;28;20540;-71
2021/06/24 07:37:52;;;;;;;5.87;5.37;;;;;;;19.83;88.83;99445.81;5093614;28;20484;-71
2021/06/24 07:40:21;;;;;;;6.77;6.10;;;;;;;19.92;89.24;99444.91;5092895;28;20513;-70
2021/06/24 07:42:48;;;;;;;5.53;4.33;;;;;;;20.27;86.79;99448.69;5092984;28;20434;-73
2021/06/24 07:45:15;;;;;;;5.10;4.70;;;;;;;20.49;83.48;99455.59;5092921;28;20503;-72
2021/06/24 07:47:43;;;;;;;4.57;4.00;;;;;;;20.56;83.62;99458.56;5092906;28;20438;-71
2021/06/24 07:50:09;;;;;;;9.03;6.60;;;;;;;20.61;84.07;99450.75;5092469;28;20438;-70
2021/06/24 07:52:36;;;;;;;6.13;5.53;;;;;;;20.75;83.37;99454.81;5092713;28;20530;-70
2021/06/24 07:55:04;;;;;;;5.13;4.20;;;;;;;20.64;82.25;99458.63;5092837;28;20476;-71
2021/06/24 07:57:32;;;;;;;4.90;3.97;;;;;;;20.64;81.87;99452.31;5092561;28;20442;-71
2021/06/24 07:59:58;;;;;;;4.23;3.90;;;;;;;20.74;81.17;99462.16;5092412;28;20586;-72
2021/06/24 08:02:25;;;;;;;5.30;4.80;;;;;;;20.61;81.30;99468.03;5093004;28;20821;-71
2021/06/24 08:04:52;;;;;;;6.87;3.60;;;;;;;20.65;80.44;99462.25;5092562;28;20474;-72
2021/06/24 08:07:19;;;;;;;8.30;3.87;;;;;;;20.66;80.66;99462.09;5092546;28;20450;-71
2021/06/24 08:09:45;;;;;;;4.23;3.90;;;;;;;20.69;80.88;99458.16;5093019;28;20532;-71
2021/06/24 08:12:12;;;;;;;3.97;3.57;;;;;;;20.79;79.62;99462.53;5092540;28;20444;-70
2021/06/24 08:14:40;;;;;;;4.07;3.70;;;;;;;20.55;81.33;99465.88;5096852;28;20449;-70
2021/06/24 08:17:07;;;;;;;3.70;3.47;;;;;;;20.26;83.10;99468.84;5097324;28;20521;-72
2021/06/24 08:19:34;;;;;;;3.93;3.60;;;;;;;20.37;84.34;99475.94;5093216;28;20858;-71
2021/06/24 08:22:01;;;;;;;3.50;3.30;;;;;;;20.59;80.73;99483.72;5100919;28;20441;-72
2021/06/24 08:24:28;;;;;;;7.20;4.50;;;;;;;20.65;81.99;99492.34;5113699;28;20444;-71
2021/06/24 08:26:56;;;;;;;3.63;3.33;;;;;;;20.51;80.63;99490.97;5111534;28;20437;-72
2021/06/24 08:29:22;;;;;;;4.67;4.20;;;;;;;20.52;81.04;99498.16;5092880;28;20835;-71
2021/06/24 08:31:51;;;;;;;11.97;4.53;;;;;;;20.40;85.77;99505.75;5093085;28;20474;-73
2021/06/24 08:34:18;;;;;;;4.30;3.90;;;;;;;20.59;83.22;99508.34;5093703;28;20431;-70
2021/06/24 08:36:45;;;;;;;4.60;4.20;;;;;;;20.78;81.72;99510.09;5093586;28;20933;-71
2021/06/24 08:39:12;;;;;;;8.53;6.07;;;;;;;20.97;81.12;99509.03;5093379;28;20491;-71
2021/06/24 08:41:38;;;;;;;4.53;4.00;;;;;;;21.11;78.94;99510.34;5104073;28;20529;-73
2021/06/24 08:44:07;;;;;;;8.33;6.47;;;;;;;20.96;80.30;99521.03;5108796;28;20433;-73
2021/06/24 08:46:34;;;;;;;4.00;3.37;;;;;;;21.22;78.41;99518.31;5101260;28;20812;-71
2021/06/24 08:49:04;;;;;;;3.97;3.17;;;;;;;21.21;78.89;99518.47;5113359;28;20444;-69
2021/06/24 08:51:33;;;;;;;3.30;3.00;;;;;;;21.36;77.58;99519.59;5097503;28;20466;-69
2021/06/24 08:54:00;;;;;;;5.00;2.90;;;;;;;21.55;76.29;99518.59;5092790;28;20437;-71
2021/06/24 08:56:27;;;;;;;4.03;3.40;;;;;;;21.76;76.87;99520.06;5096682;28;20425;-72
2021/06/24 08:58:55;;;;;;;6.33;5.70;;;;;;;21.77;77.01;99517.16;5111764;28;20517;-71
2021/06/24 09:01:49;;;;;;;3.57;3.27;;;;;;;21.75;76.08;99521.94;5113443;28;20487;-72
2021/06/24 09:04:19;;;;;;;4.10;3.53;;;;;;;21.70;75.65;99515.22;5113340;28;20477;-72
2021/06/24 09:06:46;;;;;;;4.20;3.80;;;;;;;21.40;77.04;99520.16;5109856;28;20512;-71
2021/06/24 09:09:25;;;;;;;3.73;3.43;;;;;;;21.89;75.70;99515.00;5094300;28;20549;-72
2021/06/24 09:12:01;;;;;;;2.90;2.60;;;;;;;22.01;72.59;99510.94;5096990;28;20429;-72
2021/06/24 09:14:38;;;;;;;2.30;2.10;;;;;;;22.40;69.77;99517.78;5097927;28;20528;-71
2021/06/24 09:17:05;;;;;;;5.40;4.90;;;;;;;22.57;69.73;99513.22;5072983;28;65713;-71
2021/06/24 09:19:35;;;;;;;3.40;2.80;;;;;;;22.81;68.61;99509.63;5089630;28;20532;-70
2021/06/24 09:22:07;;;;;;;3.30;3.00;;;;;;;22.56;68.99;99515.06;5088695;28;20819;-70
2021/06/24 09:24:35;;;;;;;1.97;1.80;;;;;;;22.45;68.34;99509.91;5094064;28;20939;-71
2021/06/24 09:27:05;;;;;;;2.70;2.50;;;;;;;22.98;63.64;99514.09;5089128;28;20475;-72
2021/06/24 09:29:33;;;;;;;21.93;18.07;;;;;;;23.27;63.18;99510.00;5096230;28;20429;-71
2021/06/24 09:32:01;;;;;;;4.43;2.60;;;;;;;23.32;64.34;99513.09;5109084;28;20801;-71
2021/06/24 09:34:28;;;;;;;2.90;2.70;;;;;;;23.28;65.86;99509.81;5094634;28;20475;-71
2021/06/24 09:37:04;;;;;;;2.27;2.07;;;;;;;23.05;65.91;99512.41;5096184;28;20920;-72
2021/06/24 09:39:34;;;;;;;3.03;2.30;;;;;;;23.11;67.80;99510.88;5109922;28;20432;-71
2021/06/24 09:42:04;;;;;;;2.80;2.60;;;;;;;23.22;67.28;99507.78;5116777;28;20446;-71
2021/06/24 09:44:33;;;;;;;2.57;2.23;;;;;;;22.58;67.74;99506.69;5116383;28;20444;-69
2021/06/24 09:47:01;;;;;;;2.47;2.27;;;;;;;21.99;72.18;99507.50;5116624;28;20436;-72
2021/06/24 09:49:31;;;;;;;2.70;2.50;;;;;;;21.89;70.83;99506.78;5116933;28;20823;-71
2021/06/24 09:52:00;;;;;;;2.23;2.03;;;;;;;22.19;70.32;99505.34;5114793;28;20464;-70
2021/06/24 09:54:35;;;;;;;2.57;2.37;;;;;;;22.20;72.85;99501.56;5095850;28;20527;-71
2021/06/24 09:57:03;;;;;;;2.37;2.10;;;;;;;22.16;72.75;99497.47;5096088;28;20422;-72
2021/06/24 09:59:35;;;;;;;2.20;2.00;;;;;;;22.13;74.06;99495.03;5095487;28;20436;-72
2021/06/24 10:02:11;;;;;;;2.13;1.93;;;;;;;22.74;70.60;99500.34;5095829;28;20441;-72
2021/06/24 10:04:40;;;;;;;3.03;1.90;;;;;;;23.14;67.44;99495.94;5097197;28;20469;-72
2021/06/24 10:07:11;;;;;;;4.07;1.70;;;;;;;23.08;68.26;99495.59;5095176;28;20473;-71
2021/06/24 10:09:40;;;;;;;5.37;4.97;;;;;;;23.38;67.19;99504.16;5114443;28;20449;-71
2021/06/24 10:12:09;;;;;;;2.40;2.13;;;;;;;23.59;66.25;99497.25;5099942;28;20441;-69
2021/06/24 10:14:37;;;;;;;1.87;1.67;;;;;;;24.12;62.23;99498.44;5106800;28;20452;-71
2021/06/24 10:17:05;;;;;;;2.20;1.60;;;;;;;24.01;63.04;99507.94;5099433;28;20469;-71
2021/06/24 10:19:33;;;;;;;3.33;1.83;;;;;;;24.24;62.36;99501.66;5095218;28;20422;-70
2021/06/24 10:22:03;;;;;;;1.97;1.77;;;;;;;24.61;60.00;99495.47;5094330;28;20834;-72
2021/06/24 10:24:35;;;;;;;1.73;1.60;;;;;;;24.86;58.49;99495.28;5095607;28;20872;-71
2021/06/24 10:27:07;;;;;;;1.60;1.50;;;;;;;24.62;60.02;99502.66;5094839;28;20430;-70
2021/06/24 10:29:46;;;;;;;2.27;1.63;;;;;;;24.18;60.29;99503.25;5095277;28;20487;-70
2021/06/24 10:32:28;;;;;;;1.77;1.67;;;;;;;24.51;60.28;99503.06;5095275;28;20862;-70
2021/06/24 10:34:56;;;;;;;2.07;1.77;;;;;;;24.05;62.12;99502.97;5095244;28;20440;-71
2021/06/24 10:37:25;;;;;;;1.93;1.73;;;;;;;23.90;62.73;99503.72;5095736;28;20468;-71
2021/06/24 10:39:54;;;;;;;2.17;1.97;;;;;;;24.41;61.09;99496.94;5094697;28;20441;-69
2021/06/24 10:42:22;;;;;;;2.33;2.13;;;;;;;23.98;62.84;99499.22;5097332;28;20438;-72
2021/06/24 10:44:59;;;;;;;2.70;2.07;;;;;;;24.37;62.05;99495.56;5115505;28;20894;-70
2021/06/24 10:47:37;;;;;;;2.10;2.00;;;;;;;24.15;60.95;99495.38;5115018;28;20517;-70
2021/06/24 10:50:40;;;;;;;4.30;1.90;;;;;;;24.04;61.42;99495.75;5115068;28;20425;-71
2021/06/24 10:53:40;;;;;;;1.93;1.83;;;;;;;24.53;60.13;99485.38;5115319;27;20896;-72
2021/06/24 10:56:32;;;;;;;1.73;1.63;;;;;;;25.03;58.03;99483.06;5110100;28;20931;-70
2021/06/24 10:59:00;;;;;;;1.67;1.40;;;;;;;25.38;56.74;99484.34;5095175;28;20434;-71
2021/06/24 11:01:44;;;;;;;2.20;2.10;;;;;;;24.31;59.11;99481.50;5094783;28;20462;-71
2021/06/24 11:04:31;;;;;;;1.97;1.87;;;;;;;24.30;57.87;99477.03;5073886;28;20523;-71
2021/06/24 11:06:59;;;;;;;2.50;2.30;;;;;;;24.38;58.21;99472.50;5102244;28;20475;-70
2021/06/24 11:09:27;;;;;;;1.70;1.60;;;;;;;24.32;59.60;99468.59;5108885;28;20810;-70
2021/06/24 11:11:57;;;;;;;1.87;1.40;;;;;;;24.74;56.60;99465.44;5094599;28;20537;-71
2021/06/24 11:15:03;;;;;;;2.20;1.43;;;;;;;24.48;57.06;99460.28;5094261;28;20402;-70
2021/06/24 11:17:49;;;;;;;1.67;1.37;;;;;;;24.49;57.16;99463.88;5094632;28;20816;-72
2021/06/24 11:20:19;;;;;;;1.80;1.70;;;;;;;24.54;58.33;99464.19;5094228;28;20462;-71
2021/06/24 11:22:48;;;;;;;3.13;2.10;;;;;;;24.35;59.15;99463.63;5094063;28;20925;-71
2021/06/24 11:25:15;;;;;;;1.70;1.60;;;;;;;23.90;59.95;99462.47;5094181;28;20920;-71
2021/06/24 11:27:43;;;;;;;2.23;1.33;;;;;;;24.14;60.00;99464.22;5093403;28;20473;-70